Time;durP1;ratioP1;P1;durP2;ratioP2;P2;SDS_P1;SDS_P2;PMS_P1;PMS_P2;Temp;Humidity;BMP_temperature;BMP_pressure;BME280_temperature;BME280_humidity;BME280_pressure;Samples;Min_cycle;Max_cycle;Signal;HPM_P1;HPM_P2
2024/02/07 00:00:10;;;;;;;5.07;2.50;;;9.90;99.90;;;;;;4985346;28;20469;-50
2024/02/07 00:02:40;;;;;;;6.30;3.37;;;9.90;99.90;;;;;;4982059;28;20459;-49
2024/02/07 00:05:09;;;;;;;4.03;2.67;;;9.90;99.90;;;;;;4984439;28;20456;-48
2024/02/07 00:07:38;;;;;;;3.70;3.10;;;9.90;99.90;;;;;;4984949;28;20426;-46
2024/02/07 00:10:08;;;;;;;4.27;3.27;;;9.90;99.90;;;;;;4981846;28;20476;-48
2024/02/07 00:12:36;;;;;;;5.70;3.03;;;9.90;99.90;;;;;;4981262;28;20568;-47
2024/02/07 00:15:05;;;;;;;5.57;2.70;;;9.90;99.90;;;;;;4983634;28;20455;-46
2024/02/07 00:17:34;;;;;;;3.83;2.33;;;9.90;99.90;;;;;;4982266;28;20437;-49
2024/02/07 00:20:04;;;;;;;4.37;2.20;;;9.90;99.90;;;;;;4967117;28;20552;-48
2024/02/07 00:22:32;;;;;;;5.00;2.80;;;9.90;99.90;;;;;;4985166;28;20442;-50
2024/02/07 00:25:01;;;;;;;4.93;2.90;;;9.90;99.90;;;;;;4981446;28;20473;-47
2024/02/07 00:27:29;;;;;;;4.17;3.03;;;9.90;99.90;;;;;;4979841;28;20442;-48
2024/02/07 00:29:57;;;;;;;6.10;3.00;;;9.90;99.90;;;;;;4982265;28;20478;-48
2024/02/07 00:32:26;;;;;;;4.10;2.50;;;10.00;99.90;;;;;;4964158;28;20465;-47
2024/02/07 00:34:54;;;;;;;3.00;2.70;;;9.90;99.90;;;;;;4981576;28;20557;-48
2024/02/07 00:37:24;;;;;;;4.20;3.80;;;9.90;99.90;;;;;;4983147;28;20524;-49
2024/02/07 00:39:52;;;;;;;6.50;3.40;;;9.90;99.90;;;;;;4978662;28;20559;-47
2024/02/07 00:42:20;;;;;;;4.60;2.60;;;9.90;99.90;;;;;;4982398;28;20944;-50
2024/02/07 00:44:49;;;;;;;5.20;3.00;;;9.90;99.90;;;;;;4984843;28;20452;-51
2024/02/07 00:47:17;;;;;;;3.90;2.80;;;9.90;99.90;;;;;;4985435;28;20451;-47
2024/02/07 00:49:45;;;;;;;4.20;2.80;;;9.90;99.90;;;;;;4982743;28;20508;-47
2024/02/07 00:52:14;;;;;;;4.50;2.83;;;9.90;99.90;;;;;;4981826;28;20895;-48
2024/02/07 00:54:44;;;;;;;5.80;3.00;;;9.90;99.90;;;;;;4983902;28;20523;-46
2024/02/07 00:57:12;;;;;;;5.30;2.60;;;9.90;99.90;;;;;;4976084;28;20538;-48
2024/02/07 00:59:40;;;;;;;5.07;2.90;;;9.90;99.90;;;;;;4971144;28;20785;-47
2024/02/07 01:02:09;;;;;;;4.47;3.03;;;10.00;99.90;;;;;;4978146;28;20491;-47
2024/02/07 01:04:37;;;;;;;3.60;2.60;;;9.90;99.90;;;;;;4983783;28;21065;-46
2024/02/07 01:07:07;;;;;;;7.20;3.00;;;9.90;99.90;;;;;;4983011;28;20435;-46
2024/02/07 01:09:35;;;;;;;5.03;2.53;;;9.90;99.90;;;;;;4979453;28;20576;-47
2024/02/07 01:12:05;;;;;;;4.33;3.10;;;10.00;99.90;;;;;;4982491;28;20454;-48
2024/02/07 01:14:34;;;;;;;3.40;2.93;;;10.00;99.90;;;;;;4983079;28;20708;-51
2024/02/07 01:17:03;;;;;;;3.13;2.80;;;9.90;99.90;;;;;;4962491;28;20448;-47
2024/02/07 01:19:31;;;;;;;4.40;2.73;;;9.90;99.90;;;;;;4982801;28;20477;-49
2024/02/07 01:22:00;;;;;;;6.27;3.27;;;10.00;99.90;;;;;;4977880;28;20430;-46
2024/02/07 01:24:29;;;;;;;6.17;3.00;;;9.90;99.90;;;;;;4982988;28;20896;-47
2024/02/07 01:26:57;;;;;;;3.20;2.53;;;9.90;99.90;;;;;;4975213;28;20450;-49
2024/02/07 01:29:27;;;;;;;5.50;2.37;;;9.90;99.90;;;;;;4980947;28;20455;-48
2024/02/07 01:31:56;;;;;;;6.03;3.00;;;9.90;99.90;;;;;;4977354;28;20541;-50
2024/02/07 01:34:24;;;;;;;3.90;2.83;;;9.90;99.90;;;;;;4981302;28;20516;-52
2024/02/07 01:36:54;;;;;;;3.27;2.57;;;9.90;99.90;;;;;;4982831;28;20501;-49
2024/02/07 01:39:23;;;;;;;5.07;2.80;;;9.90;99.90;;;;;;4962140;28;20490;-48
2024/02/07 01:42:01;;;;;;;4.60;2.37;;;9.90;99.90;;;;;;4982095;28;20422;-47
2024/02/07 01:44:31;;;;;;;4.77;2.87;;;9.90;99.90;;;;;;4982131;28;20474;-51
2024/02/07 01:47:13;;;;;;;7.53;3.60;;;9.90;99.90;;;;;;4981686;28;20536;-47
2024/02/07 01:49:47;;;;;;;4.63;2.80;;;9.90;99.90;;;;;;4983196;28;20465;-48
2024/02/07 01:52:18;;;;;;;4.40;2.50;;;9.90;99.90;;;;;;4964712;28;20468;-48
2024/02/07 01:54:48;;;;;;;5.30;2.87;;;10.00;99.90;;;;;;4981916;28;20557;-47
2024/02/07 01:57:16;;;;;;;4.00;2.70;;;10.00;99.90;;;;;;4982977;28;20438;-47
2024/02/07 01:59:49;;;;;;;4.43;3.47;;;9.90;99.90;;;;;;4981469;28;20466;-49
2024/02/07 02:02:17;;;;;;;3.50;2.17;;;9.90;99.90;;;;;;4963416;28;20473;-48
2024/02/07 02:04:47;;;;;;;7.33;3.10;;;9.90;99.90;;;;;;4963530;28;20461;-48
2024/02/07 02:07:16;;;;;;;4.00;2.93;;;9.90;99.90;;;;;;4969987;28;20462;-48
2024/02/07 02:09:44;;;;;;;3.80;2.30;;;9.90;99.90;;;;;;4975545;28;20479;-48
2024/02/07 02:12:14;;;;;;;6.80;2.70;;;9.90;99.90;;;;;;4964700;28;20449;-47
2024/02/07 02:14:43;;;;;;;4.30;2.93;;;9.90;99.90;;;;;;4982977;28;20465;-48
2024/02/07 02:17:13;;;;;;;4.00;2.57;;;9.90;99.90;;;;;;4977805;28;21007;-48
2024/02/07 02:19:42;;;;;;;4.90;3.30;;;9.90;99.90;;;;;;4982373;28;20473;-47
2024/02/07 02:22:30;;;;;;;4.73;2.43;;;9.90;99.90;;;;;;4981016;28;20802;-46
2024/02/07 02:25:17;;;;;;;4.20;2.87;;;9.90;99.90;;;;;;4974538;28;20473;-47
2024/02/07 02:27:57;;;;;;;3.53;2.43;;;9.90;99.90;;;;;;4971176;28;20899;-47
2024/02/07 02:30:34;;;;;;;5.90;2.90;;;9.90;99.90;;;;;;4965661;28;20464;-47
2024/02/07 02:33:08;;;;;;;4.30;3.03;;;9.90;99.90;;;;;;4972514;28;20477;-50
2024/02/07 02:35:39;;;;;;;3.03;2.67;;;9.90;99.90;;;;;;4980801;28;20514;-48
2024/02/07 02:38:07;;;;;;;3.40;2.80;;;9.90;99.90;;;;;;4981123;28;20508;-47
2024/02/07 02:40:36;;;;;;;3.63;2.50;;;9.90;99.90;;;;;;4961734;28;20881;-47
2024/02/07 02:43:05;;;;;;;3.80;2.30;;;9.90;99.90;;;;;;4979551;28;20450;-47
2024/02/07 02:45:35;;;;;;;5.63;2.53;;;9.90;99.90;;;;;;4982040;28;20437;-47
2024/02/07 02:48:04;;;;;;;4.03;2.60;;;9.90;99.90;;;;;;4976128;28;20790;-47
2024/02/07 02:50:32;;;;;;;3.50;2.67;;;9.90;99.90;;;;;;4982932;28;20819;-47
2024/02/07 02:53:01;;;;;;;6.60;3.57;;;9.90;99.90;;;;;;4969977;28;20475;-51
2024/02/07 02:55:29;;;;;;;4.03;2.40;;;9.90;99.90;;;;;;4985666;28;20457;-47
2024/02/07 02:58:01;;;;;;;3.77;3.03;;;10.00;99.90;;;;;;4980494;28;20487;-47
2024/02/07 03:00:30;;;;;;;2.87;2.57;;;9.90;99.90;;;;;;4983026;28;20482;-46
2024/02/07 03:03:02;;;;;;;3.80;2.90;;;9.90;99.90;;;;;;4986894;28;20496;-47
2024/02/07 03:05:45;;;;;;;5.63;2.83;;;9.90;99.90;;;;;;4992113;28;21043;-47
2024/02/07 03:08:21;;;;;;;6.13;3.97;;;9.90;99.90;;;;;;4988617;28;20520;-47
2024/02/07 03:10:53;;;;;;;3.60;2.67;;;9.90;99.90;;;;;;4991406;28;20429;-50
2024/02/07 03:13:22;;;;;;;8.10;2.60;;;9.90;99.90;;;;;;4982985;28;20473;-48
2024/02/07 03:15:52;;;;;;;4.50;2.67;;;9.90;99.90;;;;;;4992169;28;20966;-47
2024/02/07 03:18:21;;;;;;;5.63;2.43;;;9.90;99.90;;;;;;4989370;28;20450;-49
2024/02/07 03:20:50;;;;;;;6.97;2.83;;;9.90;99.90;;;;;;4974032;28;21003;-47
2024/02/07 03:23:19;;;;;;;6.27;3.00;;;9.90;99.90;;;;;;4991724;28;20544;-46
2024/02/07 03:25:47;;;;;;;5.83;2.50;;;9.90;99.90;;;;;;4988352;28;20457;-46
2024/02/07 03:28:16;;;;;;;3.30;2.70;;;9.90;99.90;;;;;;4991546;28;20536;-46
2024/02/07 03:30:44;;;;;;;5.90;2.90;;;9.90;99.90;;;;;;4990976;28;20431;-46
2024/02/07 03:33:12;;;;;;;3.73;2.83;;;9.90;99.90;;;;;;4980465;28;20851;-46
2024/02/07 03:35:43;;;;;;;4.60;3.13;;;9.90;99.90;;;;;;4978561;28;20474;-46
2024/02/07 03:38:11;;;;;;;3.50;2.67;;;9.90;99.90;;;;;;4979650;28;20437;-47
2024/02/07 03:40:42;;;;;;;4.27;3.10;;;9.90;99.90;;;;;;4989337;28;20474;-46
2024/02/07 03:43:10;;;;;;;5.67;3.10;;;9.90;99.90;;;;;;4990464;28;20510;-46
2024/02/07 03:45:38;;;;;;;2.60;2.10;;;9.90;99.90;;;;;;4990815;28;20434;-46
2024/02/07 03:48:13;;;;;;;2.27;2.07;;;9.90;99.90;;;;;;4988854;28;20447;-47
2024/02/07 03:50:43;;;;;;;4.10;2.63;;;9.90;99.90;;;;;;4992522;28;20516;-46
2024/02/07 03:53:11;;;;;;;3.30;2.30;;;9.90;99.90;;;;;;4986356;28;20470;-46
2024/02/07 03:55:39;;;;;;;5.23;2.57;;;9.90;99.90;;;;;;4990990;28;20477;-46
2024/02/07 03:58:09;;;;;;;3.43;2.43;;;9.90;99.90;;;;;;4992277;28;20435;-46
2024/02/07 04:00:37;;;;;;;6.60;3.03;;;10.00;99.90;;;;;;4992462;28;20443;-46
2024/02/07 04:03:05;;;;;;;4.83;2.37;;;9.90;99.90;;;;;;4980101;28;20560;-47
2024/02/07 04:05:34;;;;;;;3.07;2.30;;;9.90;99.90;;;;;;4971374;28;20433;-46
2024/02/07 04:08:05;;;;;;;3.87;2.40;;;9.90;99.90;;;;;;4988217;28;20804;-46
2024/02/07 04:10:41;;;;;;;2.97;2.67;;;9.90;99.90;;;;;;4983617;28;20450;-46
2024/02/07 05:16:32;;;;;;;4.07;2.60;;;9.90;99.90;;;;;;4980134;28;20461;-46
2024/02/07 05:19:01;;;;;;;3.93;2.00;;;9.90;99.90;;;;;;4980740;28;20533;-46
2024/02/07 05:21:30;;;;;;;2.80;1.80;;;9.90;99.90;;;;;;4967760;28;20448;-46
2024/02/07 05:23:59;;;;;;;2.30;1.70;;;9.90;99.90;;;;;;4975774;28;20559;-46
2024/02/07 05:26:27;;;;;;;2.50;2.00;;;9.90;99.90;;;;;;4980354;28;20454;-47
2024/02/07 05:28:57;;;;;;;3.80;1.93;;;9.90;99.90;;;;;;4981989;28;20466;-46
2024/02/07 05:31:26;;;;;;;2.67;2.03;;;9.90;99.90;;;;;;4979076;28;20547;-47
2024/02/07 05:33:55;;;;;;;3.37;2.20;;;9.90;99.90;;;;;;4963656;28;20469;-47
2024/02/07 05:36:23;;;;;;;2.80;1.87;;;9.90;99.90;;;;;;4982238;28;20517;-46
2024/02/07 05:38:53;;;;;;;3.57;2.13;;;9.90;99.90;;;;;;4981395;28;20605;-46
2024/02/07 05:41:24;;;;;;;2.63;2.13;;;9.90;99.90;;;;;;4978176;28;20537;-46
2024/02/07 05:43:53;;;;;;;2.37;1.70;;;9.90;99.90;;;;;;4963823;28;20859;-49
2024/02/07 05:46:22;;;;;;;2.10;1.50;;;9.90;99.90;;;;;;4981130;28;20840;-48
2024/02/07 05:48:51;;;;;;;2.07;1.40;;;9.90;99.90;;;;;;4968492;28;20463;-48
2024/02/07 05:51:20;;;;;;;2.57;2.00;;;9.90;99.90;;;;;;4958219;28;20765;-47
2024/02/07 05:53:48;;;;;;;3.33;2.07;;;9.90;99.90;;;;;;4982353;28;20834;-49
2024/02/07 05:56:17;;;;;;;2.93;1.80;;;9.90;99.90;;;;;;4983248;28;20465;-48
2024/02/07 05:58:47;;;;;;;3.20;1.90;;;9.90;99.90;;;;;;4978107;28;20924;-47
2024/02/07 06:01:16;;;;;;;2.80;2.10;;;9.90;99.90;;;;;;4979428;28;20442;-46
2024/02/07 06:03:50;;;;;;;3.50;2.10;;;9.90;99.90;;;;;;4981442;28;20470;-46
2024/02/07 06:06:19;;;;;;;3.80;1.47;;;9.90;99.90;;;;;;4983408;28;20804;-47
2024/02/07 06:08:49;;;;;;;2.67;2.03;;;9.90;99.90;;;;;;4983397;28;20463;-46
2024/02/07 06:11:17;;;;;;;3.23;1.80;;;9.90;99.90;;;;;;4966308;28;20875;-47
2024/02/07 06:13:46;;;;;;;4.80;1.97;;;9.90;99.90;;;;;;4983238;28;20657;-47
2024/02/07 06:16:15;;;;;;;2.10;1.90;;;9.90;99.90;;;;;;4960010;28;20458;-46
2024/02/07 06:18:45;;;;;;;2.60;1.70;;;9.90;99.90;;;;;;4963558;28;20470;-48
2024/02/07 06:21:13;;;;;;;2.53;1.70;;;9.90;99.90;;;;;;4982778;28;20430;-48
2024/02/07 06:23:41;;;;;;;1.90;1.50;;;9.90;99.90;;;;;;4983499;28;20473;-47
2024/02/07 06:26:10;;;;;;;3.20;1.53;;;9.90;99.90;;;;;;4977117;28;20525;-48
2024/02/07 06:28:39;;;;;;;3.17;1.73;;;9.90;99.90;;;;;;4952284;28;20514;-47
2024/02/07 06:31:08;;;;;;;2.10;1.70;;;9.90;99.90;;;;;;4966782;28;20931;-46
2024/02/07 06:33:38;;;;;;;3.23;1.40;;;9.90;99.90;;;;;;4983174;28;20817;-47
2024/02/07 06:36:08;;;;;;;1.83;1.50;;;9.90;99.90;;;;;;4986017;28;20470;-46
2024/02/07 06:38:36;;;;;;;2.10;1.53;;;9.90;99.90;;;;;;4972150;28;21041;-46
2024/02/07 06:41:05;;;;;;;1.97;1.67;;;9.90;99.90;;;;;;4970823;28;20972;-48
2024/02/07 06:43:33;;;;;;;2.33;1.67;;;9.90;99.90;;;;;;4986049;28;20467;-48
2024/02/07 06:46:04;;;;;;;2.40;1.70;;;9.80;99.90;;;;;;4978897;28;20426;-48
2024/02/07 06:48:32;;;;;;;5.00;1.87;;;9.90;99.90;;;;;;4986377;28;20457;-48
2024/02/07 06:51:00;;;;;;;4.13;1.60;;;9.80;99.90;;;;;;4986687;28;20488;-46
2024/02/07 06:53:31;;;;;;;2.10;1.60;;;9.90;99.90;;;;;;4985705;28;20461;-48
2024/02/07 06:56:00;;;;;;;2.00;1.17;;;9.90;99.90;;;;;;4971506;28;20556;-46
2024/02/07 06:58:30;;;;;;;1.97;1.67;;;9.80;99.90;;;;;;4986604;28;20446;-48
2024/02/07 07:01:00;;;;;;;2.60;1.50;;;9.80;99.90;;;;;;4971360;28;20433;-47
2024/02/07 07:03:29;;;;;;;2.10;1.57;;;9.80;99.90;;;;;;4974793;28;20463;-47
2024/02/07 07:05:59;;;;;;;3.67;1.67;;;9.80;99.90;;;;;;4981116;28;20436;-49
2024/02/07 07:08:28;;;;;;;3.00;1.50;;;9.80;99.90;;;;;;4982325;28;20518;-48
2024/02/07 07:10:58;;;;;;;1.70;1.37;;;9.80;99.90;;;;;;4983855;28;20951;-47
2024/02/07 07:13:26;;;;;;;2.37;1.80;;;9.80;99.90;;;;;;4968226;28;20872;-47
2024/02/07 07:15:56;;;;;;;2.30;1.40;;;9.80;99.90;;;;;;4967223;28;21058;-45
2024/02/07 07:18:27;;;;;;;2.00;1.40;;;9.80;99.90;;;;;;4983229;28;20788;-46
2024/02/07 07:20:57;;;;;;;3.10;1.50;;;9.80;99.90;;;;;;4986137;28;20422;-46
2024/02/07 07:23:26;;;;;;;1.93;1.37;;;9.80;99.90;;;;;;4967846;28;20552;-48
2024/02/07 07:25:57;;;;;;;2.83;1.60;;;9.80;99.90;;;;;;4980198;28;20444;-48
2024/02/07 07:28:26;;;;;;;1.90;1.40;;;9.80;99.90;;;;;;4984422;28;20956;-50
2024/02/07 07:30:57;;;;;;;2.13;1.40;;;9.80;99.90;;;;;;4967880;28;20456;-51
2024/02/07 07:33:27;;;;;;;2.27;1.40;;;9.80;99.90;;;;;;4976518;28;20474;-49
2024/02/07 07:35:55;;;;;;;2.33;1.80;;;9.80;99.90;;;;;;4982338;28;20975;-47
2024/02/07 07:38:25;;;;;;;2.93;1.60;;;9.80;99.90;;;;;;4983472;28;20441;-47
2024/02/07 07:40:55;;;;;;;1.73;1.57;;;9.80;99.90;;;;;;4969843;28;20474;-47
2024/02/07 07:43:26;;;;;;;1.70;1.20;;;9.80;99.90;;;;;;4982852;28;20450;-48
2024/02/07 07:45:57;;;;;;;3.20;1.60;;;9.80;99.90;;;;;;4984383;28;20427;-48
2024/02/07 07:48:26;;;;;;;2.00;1.60;;;9.80;99.90;;;;;;4979648;28;20816;-51
2024/02/07 07:50:56;;;;;;;2.13;1.20;;;9.80;99.90;;;;;;4968342;28;20446;-48
2024/02/07 07:53:25;;;;;;;2.07;1.30;;;9.80;99.90;;;;;;4982316;28;20452;-45
2024/02/07 07:55:55;;;;;;;2.53;1.70;;;9.80;99.90;;;;;;4982337;28;20522;-47
2024/02/07 07:58:27;;;;;;;3.00;1.50;;;9.80;99.90;;;;;;4985406;28;20433;-46
2024/02/07 08:01:14;;;;;;;2.47;1.67;;;9.80;99.90;;;;;;4961310;28;20441;-51
2024/02/07 08:03:46;;;;;;;2.03;1.33;;;9.80;99.90;;;;;;4983035;28;20480;-44
2024/02/07 08:06:16;;;;;;;2.20;1.60;;;9.80;99.90;;;;;;4985159;28;20418;-47
2024/02/07 08:08:47;;;;;;;2.63;1.53;;;9.80;99.90;;;;;;4983141;28;20486;-46
2024/02/07 08:11:19;;;;;;;3.80;1.83;;;9.80;99.90;;;;;;4980305;28;20855;-44
2024/02/07 08:13:51;;;;;;;2.57;1.87;;;9.80;99.90;;;;;;4982477;28;20825;-46
2024/02/07 08:16:21;;;;;;;2.47;1.70;;;9.80;99.90;;;;;;4980981;28;20470;-47
2024/02/07 08:18:51;;;;;;;1.60;1.13;;;9.80;99.90;;;;;;4983320;28;20474;-46
2024/02/07 08:21:25;;;;;;;2.00;1.53;;;9.80;99.90;;;;;;4985074;28;20439;-46
2024/02/07 08:23:54;;;;;;;3.50;1.50;;;9.80;99.90;;;;;;4981846;28;20485;-46
2024/02/07 08:26:24;;;;;;;1.93;1.70;;;9.80;99.90;;;;;;4976972;28;20509;-47
2024/02/07 08:28:56;;;;;;;1.90;1.47;;;9.80;99.90;;;;;;4971787;28;20460;-46
2024/02/07 08:31:26;;;;;;;2.47;1.83;;;9.80;99.90;;;;;;4975343;28;20838;-45
2024/02/07 08:33:57;;;;;;;2.00;1.40;;;9.80;99.90;;;;;;4982264;28;20469;-47
2024/02/07 08:36:27;;;;;;;2.00;1.30;;;9.80;99.90;;;;;;4973870;28;20469;-46
2024/02/07 08:38:57;;;;;;;1.90;1.17;;;9.80;99.90;;;;;;4968960;28;20830;-45
2024/02/07 08:41:27;;;;;;;2.33;1.20;;;9.80;99.90;;;;;;4979025;28;20449;-45
2024/02/07 08:43:57;;;;;;;2.00;1.47;;;9.80;99.90;;;;;;4982268;28;20545;-45
2024/02/07 08:46:27;;;;;;;2.37;1.23;;;9.80;99.90;;;;;;4979812;28;20453;-45
2024/02/07 08:48:58;;;;;;;2.03;1.37;;;9.80;99.90;;;;;;4978048;28;20824;-46
2024/02/07 08:51:27;;;;;;;1.90;1.10;;;9.80;99.90;;;;;;4984802;28;20435;-47
2024/02/07 08:53:58;;;;;;;2.60;1.80;;;9.80;99.90;;;;;;4983196;28;20466;-47
2024/02/07 08:56:29;;;;;;;2.10;1.23;;;9.80;99.90;;;;;;4977978;28;20473;-46
2024/02/07 08:59:02;;;;;;;2.00;1.50;;;9.80;99.90;;;;;;4983917;28;20466;-46
2024/02/07 09:01:33;;;;;;;1.73;1.37;;;9.80;99.90;;;;;;4979506;28;20451;-47
2024/02/07 09:04:03;;;;;;;1.70;1.03;;;9.80;99.90;;;;;;4977134;28;20610;-46
2024/02/07 09:06:32;;;;;;;2.73;1.60;;;9.80;99.90;;;;;;4982985;28;20962;-46
2024/02/07 09:09:02;;;;;;;2.63;1.43;;;9.80;99.90;;;;;;4976018;28;20497;-46
2024/02/07 09:11:32;;;;;;;2.27;1.40;;;9.80;99.90;;;;;;4981320;28;20434;-46
2024/02/07 09:14:04;;;;;;;2.00;1.30;;;9.80;99.90;;;;;;4976354;28;21019;-46
2024/02/07 09:16:33;;;;;;;1.63;1.00;;;9.80;99.90;;;;;;4979122;28;20456;-46
2024/02/07 09:19:02;;;;;;;1.90;1.33;;;9.80;99.90;;;;;;4976936;28;20813;-46
2024/02/07 09:21:34;;;;;;;2.20;1.40;;;9.80;99.90;;;;;;4984185;28;20447;-45
2024/02/07 09:24:06;;;;;;;1.80;1.20;;;9.80;99.90;;;;;;4973453;28;20569;-46
2024/02/07 09:26:35;;;;;;;2.03;1.50;;;9.80;99.90;;;;;;4979118;28;20865;-47
2024/02/07 09:29:07;;;;;;;2.10;1.17;;;9.80;99.90;;;;;;4974494;28;20475;-46
2024/02/07 09:31:37;;;;;;;1.53;1.00;;;9.80;99.90;;;;;;4978791;28;20456;-45
2024/02/07 09:34:07;;;;;;;2.30;1.80;;;9.80;99.90;;;;;;4981672;28;20520;-46
2024/02/07 09:36:39;;;;;;;1.97;1.17;;;9.80;99.90;;;;;;4980333;28;20463;-45
2024/02/07 09:39:11;;;;;;;1.80;1.20;;;9.80;99.90;;;;;;4981188;28;20995;-46
2024/02/07 09:41:44;;;;;;;2.77;1.20;;;9.70;99.90;;;;;;4971788;28;20462;-47
2024/02/07 09:44:18;;;;;;;1.60;1.10;;;9.70;99.90;;;;;;4983023;28;20470;-46
2024/02/07 09:46:53;;;;;;;3.50;1.27;;;9.70;99.90;;;;;;4979867;28;20482;-47
2024/02/07 09:49:24;;;;;;;2.03;1.37;;;9.70;99.90;;;;;;4982872;28;20552;-46
2024/02/07 09:51:56;;;;;;;2.03;1.20;;;9.70;99.90;;;;;;4983522;28;20431;-47
2024/02/07 09:54:27;;;;;;;1.80;1.30;;;9.70;99.90;;;;;;4974702;28;20563;-46
2024/02/07 09:56:58;;;;;;;2.40;1.17;;;9.70;99.90;;;;;;4982387;28;20545;-45
2024/02/07 09:59:32;;;;;;;1.73;1.23;;;9.70;99.90;;;;;;4981492;28;20487;-46
2024/02/07 10:02:03;;;;;;;2.07;1.30;;;9.70;99.90;;;;;;4970169;28;20924;-45
2024/02/07 10:04:39;;;;;;;2.57;1.30;;;9.70;99.90;;;;;;4982205;28;20471;-46
2024/02/07 10:07:13;;;;;;;1.60;1.20;;;9.70;99.90;;;;;;4977032;28;20425;-45
2024/02/07 10:09:45;;;;;;;2.13;1.43;;;9.70;99.90;;;;;;4983186;28;20463;-48
2024/02/07 10:12:16;;;;;;;3.37;1.10;;;9.70;99.90;;;;;;4961256;28;20525;-46
2024/02/07 10:14:50;;;;;;;2.00;1.10;;;9.70;99.90;;;;;;4982623;28;20506;-47
2024/02/07 10:17:19;;;;;;;2.20;1.23;;;9.70;99.90;;;;;;4978886;28;20467;-48
2024/02/07 10:19:48;;;;;;;2.90;1.60;;;9.70;99.90;;;;;;4978420;28;20467;-47
2024/02/07 10:22:20;;;;;;;2.30;1.80;;;9.70;99.90;;;;;;4983453;28;20525;-47
2024/02/07 10:24:50;;;;;;;1.30;1.20;;;9.70;99.90;;;;;;4982818;28;20462;-48
2024/02/07 10:27:21;;;;;;;2.50;1.53;;;9.70;99.90;;;;;;4979171;28;20864;-48
2024/02/07 10:30:02;;;;;;;1.63;1.40;;;9.70;99.90;;;;;;4981820;28;20458;-48
2024/02/07 10:32:32;;;;;;;2.33;1.53;;;9.70;99.90;;;;;;4977869;28;20564;-50
2024/02/07 10:35:03;;;;;;;2.10;1.43;;;9.70;99.90;;;;;;4979883;28;20461;-47
2024/02/07 10:37:39;;;;;;;2.07;1.10;;;9.70;99.90;;;;;;4981962;28;21046;-48
2024/02/07 10:40:11;;;;;;;2.40;1.40;;;9.70;99.90;;;;;;4970811;28;20560;-48
2024/02/07 10:42:41;;;;;;;2.70;1.30;;;9.70;99.90;;;;;;4981034;28;20458;-48
2024/02/07 10:45:13;;;;;;;2.50;1.60;;;9.70;99.90;;;;;;4980879;28;20869;-48
2024/02/07 10:47:45;;;;;;;2.13;1.40;;;9.70;99.90;;;;;;4976771;28;20516;-48
2024/02/07 10:50:17;;;;;;;3.33;1.60;;;9.70;99.90;;;;;;4981978;28;20563;-49
2024/02/07 10:52:48;;;;;;;2.30;1.33;;;9.70;99.90;;;;;;4978771;28;20964;-47
2024/02/07 10:55:21;;;;;;;2.03;1.33;;;9.70;99.90;;;;;;4969937;28;20485;-48
2024/02/07 10:57:59;;;;;;;2.93;1.73;;;9.70;99.90;;;;;;4976319;28;20485;-49
2024/02/07 11:00:30;;;;;;;2.40;1.17;;;9.70;99.90;;;;;;4976350;28;20467;-50
2024/02/07 11:03:00;;;;;;;2.13;1.13;;;9.70;99.90;;;;;;4980306;28;20594;-48
2024/02/07 11:05:31;;;;;;;2.23;1.40;;;9.70;99.90;;;;;;4963582;28;20469;-47
2024/02/07 11:08:02;;;;;;;1.83;1.30;;;9.70;99.90;;;;;;4967406;28;20527;-48
2024/02/07 11:10:33;;;;;;;2.67;1.17;;;9.70;99.90;;;;;;4981437;28;20489;-49
2024/02/07 11:13:03;;;;;;;3.40;1.20;;;9.70;99.90;;;;;;4957091;28;20461;-48
2024/02/07 11:15:36;;;;;;;1.53;1.23;;;9.70;99.90;;;;;;4982367;28;20533;-47
2024/02/07 11:18:10;;;;;;;1.97;1.10;;;9.70;99.90;;;;;;4979375;28;20718;-47
2024/02/07 11:20:44;;;;;;;2.90;1.60;;;9.70;99.90;;;;;;4983339;28;20523;-48
2024/02/07 11:23:18;;;;;;;3.00;1.53;;;9.70;99.90;;;;;;4977114;28;20473;-48
2024/02/07 11:25:51;;;;;;;2.93;1.57;;;9.60;99.90;;;;;;4976418;28;21587;-49
2024/02/07 11:28:21;;;;;;;2.83;1.20;;;9.60;99.90;;;;;;4979640;28;20587;-48
2024/02/07 11:30:55;;;;;;;2.07;1.47;;;9.60;99.90;;;;;;4986002;28;20456;-48
2024/02/07 11:33:27;;;;;;;2.73;1.43;;;9.60;99.90;;;;;;4980521;28;20998;-46
2024/02/07 11:36:06;;;;;;;2.87;1.43;;;9.60;99.90;;;;;;4962603;28;20434;-46
2024/02/07 11:38:38;;;;;;;2.43;1.40;;;9.60;99.90;;;;;;4984200;28;20457;-49
2024/02/07 11:41:08;;;;;;;1.53;1.07;;;9.60;99.90;;;;;;4978962;28;20496;-47
2024/02/07 11:43:43;;;;;;;2.27;1.50;;;9.60;99.90;;;;;;4967358;28;20471;-47
2024/02/07 11:46:17;;;;;;;1.60;1.03;;;9.60;99.90;;;;;;4983591;28;20428;-48
2024/02/07 11:48:51;;;;;;;2.57;1.37;;;9.60;99.90;;;;;;4984817;28;20926;-49
2024/02/07 11:51:23;;;;;;;1.97;1.10;;;9.60;99.90;;;;;;4962804;28;20436;-47
2024/02/07 11:53:59;;;;;;;1.70;1.20;;;9.60;99.90;;;;;;4983853;28;20504;-45
2024/02/07 11:56:33;;;;;;;3.20;1.17;;;9.60;99.90;;;;;;4980198;28;20930;-47
2024/02/07 11:59:03;;;;;;;2.53;1.30;;;9.60;99.90;;;;;;4977186;28;20999;-46
2024/02/07 12:01:37;;;;;;;2.43;1.40;;;9.60;99.90;;;;;;4981868;28;20561;-46
2024/02/07 12:04:08;;;;;;;1.80;1.20;;;9.60;99.90;;;;;;4977873;28;20987;-45
2024/02/07 12:06:40;;;;;;;2.50;1.67;;;9.60;99.90;;;;;;4984214;28;20458;-47
2024/02/07 12:09:11;;;;;;;3.00;1.20;;;9.60;99.90;;;;;;4983689;28;20458;-46
2024/02/07 12:11:42;;;;;;;1.57;1.13;;;9.60;99.90;;;;;;4982218;28;20448;-46
2024/02/07 12:14:15;;;;;;;1.47;1.00;;;9.60;99.90;;;;;;4983402;28;20462;-46
2024/02/07 12:16:46;;;;;;;2.63;1.30;;;9.60;99.90;;;;;;4977852;28;21043;-47
2024/02/07 12:19:16;;;;;;;2.30;1.37;;;9.60;99.90;;;;;;4982833;28;21466;-46
2024/02/07 12:21:46;;;;;;;2.80;1.27;;;9.60;99.90;;;;;;4983955;28;20435;-46
2024/02/07 12:24:19;;;;;;;2.17;1.03;;;9.60;99.90;;;;;;4982848;28;20534;-46
2024/02/07 12:26:48;;;;;;;2.23;1.47;;;9.60;99.90;;;;;;4978168;28;20449;-47
2024/02/07 12:29:21;;;;;;;2.17;1.40;;;9.60;99.90;;;;;;4983529;28;20474;-46
2024/02/07 12:31:52;;;;;;;3.00;1.40;;;9.60;99.90;;;;;;4980720;28;20546;-46
2024/02/07 12:34:26;;;;;;;2.73;1.33;;;9.60;99.90;;;;;;4983710;28;20493;-47
2024/02/07 12:36:58;;;;;;;1.90;1.20;;;9.60;99.90;;;;;;4982358;28;20426;-46
2024/02/07 12:39:30;;;;;;;2.40;1.20;;;9.60;99.90;;;;;;4977123;28;20478;-46
2024/02/07 12:42:04;;;;;;;2.23;1.40;;;9.60;99.90;;;;;;4981332;28;20488;-46
2024/02/07 12:44:39;;;;;;;1.73;0.93;;;9.50;99.90;;;;;;4983619;28;20473;-45
2024/02/07 12:47:14;;;;;;;1.80;1.00;;;9.60;99.90;;;;;;4973349;28;20861;-46
2024/02/07 12:49:43;;;;;;;2.13;1.50;;;9.50;99.90;;;;;;4984111;28;21013;-46
2024/02/07 12:52:13;;;;;;;2.20;1.20;;;9.50;99.90;;;;;;4984402;28;20867;-47
2024/02/07 12:54:56;;;;;;;2.57;1.47;;;9.50;99.90;;;;;;4975190;28;21043;-46
2024/02/07 12:57:30;;;;;;;1.93;1.17;;;9.50;99.90;;;;;;4977840;28;20473;-46
2024/02/07 13:00:11;;;;;;;2.43;1.43;;;9.50;99.90;;;;;;4966262;28;20476;-47
2024/02/07 13:02:51;;;;;;;2.10;1.00;;;9.50;99.90;;;;;;4980532;28;20469;-46
2024/02/07 13:05:21;;;;;;;2.30;1.40;;;9.50;99.90;;;;;;4981599;28;20494;-48
2024/02/07 13:07:51;;;;;;;2.87;1.40;;;9.50;99.90;;;;;;4975527;28;20445;-47
2024/02/07 13:10:21;;;;;;;2.53;1.60;;;9.50;99.90;;;;;;4983485;28;20461;-47
2024/02/07 13:12:52;;;;;;;1.87;1.37;;;9.50;99.90;;;;;;4983211;28;20807;-47
2024/02/07 13:15:22;;;;;;;2.37;1.23;;;9.50;99.90;;;;;;4979350;28;20569;-48
2024/02/07 13:17:53;;;;;;;2.10;1.33;;;9.50;99.90;;;;;;4977039;28;20445;-48
2024/02/07 13:20:24;;;;;;;2.33;1.30;;;9.50;99.90;;;;;;4982308;28;20474;-47
2024/02/07 13:22:54;;;;;;;2.53;1.33;;;9.50;99.90;;;;;;4978881;28;20461;-49
2024/02/07 13:25:24;;;;;;;2.20;1.30;;;9.50;99.90;;;;;;4979078;28;20474;-47
2024/02/07 13:27:54;;;;;;;3.10;1.50;;;9.50;99.90;;;;;;4980654;28;20786;-48
2024/02/07 13:30:26;;;;;;;1.60;1.20;;;9.50;99.90;;;;;;4979315;28;20999;-48
2024/02/07 13:32:59;;;;;;;1.50;1.00;;;9.50;99.90;;;;;;4978562;28;20465;-49
2024/02/07 13:35:29;;;;;;;3.70;1.20;;;9.50;99.90;;;;;;4982324;28;20461;-48
2024/02/07 13:38:00;;;;;;;1.93;1.20;;;9.50;99.90;;;;;;4973250;28;20800;-50
2024/02/07 13:40:30;;;;;;;2.10;1.33;;;9.50;99.90;;;;;;4968062;28;20500;-47
2024/02/07 13:43:01;;;;;;;3.00;1.50;;;9.50;99.90;;;;;;4983552;28;20450;-46
2024/02/07 13:45:32;;;;;;;1.80;1.10;;;9.50;99.90;;;;;;4981372;28;20816;-47
2024/02/07 13:48:07;;;;;;;2.80;1.20;;;9.50;99.90;;;;;;4963877;28;20577;-48
2024/02/07 13:50:37;;;;;;;1.90;1.30;;;9.50;99.90;;;;;;4982381;28;20769;-46
2024/02/07 13:53:08;;;;;;;1.93;1.20;;;9.50;99.90;;;;;;4982682;28;20454;-46
2024/02/07 13:55:39;;;;;;;2.90;1.30;;;9.40;99.90;;;;;;4983284;28;20457;-46
2024/02/07 13:58:10;;;;;;;1.60;1.10;;;9.40;99.90;;;;;;4977419;28;20791;-46
2024/02/07 14:00:40;;;;;;;1.90;1.10;;;9.50;99.90;;;;;;4982711;28;20579;-48
2024/02/07 14:03:11;;;;;;;2.23;1.10;;;9.40;99.90;;;;;;4978467;28;20459;-47
2024/02/07 14:05:39;;;;;;;2.73;1.37;;;9.40;99.90;;;;;;4980755;28;20835;-48
2024/02/07 14:08:10;;;;;;;2.27;1.37;;;9.40;99.90;;;;;;4984850;28;20504;-49
2024/02/07 14:10:40;;;;;;;2.50;1.50;;;9.40;99.90;;;;;;4981251;28;20461;-48
2024/02/07 14:13:11;;;;;;;2.33;1.53;;;9.40;99.90;;;;;;4982345;28;20467;-47
2024/02/07 14:15:41;;;;;;;1.93;1.10;;;9.40;99.90;;;;;;4976118;28;20497;-49
2024/02/07 14:18:14;;;;;;;2.70;2.43;;;9.40;99.90;;;;;;4978608;28;20439;-48